createdAt,value
2023-01-17T00:01:28.872Z,93.84
2023-01-17T00:04:15.406Z,93.73
2023-01-17T00:07:00.384Z,93.51
2023-01-17T00:09:45.259Z,93.41
2023-01-17T00:12:12.950Z,92.12
2023-01-17T00:14:40.532Z,92.89
2023-01-17T00:17:08.170Z,93.34
2023-01-17T00:19:54.452Z,94.00
2023-01-17T00:22:41.884Z,94.51
2023-01-17T00:25:29.393Z,95.15
2023-01-17T00:27:55.950Z,96.92
2023-01-17T00:30:22.873Z,96.38
2023-01-17T00:32:49.533Z,95.88
2023-01-17T00:35:18.195Z,95.81
2023-01-17T00:37:44.849Z,97.61
2023-01-17T00:40:12.079Z,97.98
2023-01-17T00:42:38.771Z,98.96
2023-01-17T00:45:24.636Z,98.79
2023-01-17T00:48:09.560Z,97.68
2023-01-17T00:50:56.617Z,97.99
2023-01-17T00:53:41.764Z,98.47
2023-01-17T00:56:27.095Z,97.65
2023-01-17T00:59:13.357Z,97.07
2023-01-17T01:01:58.650Z,96.49
2023-01-17T01:04:44.219Z,96.01
2023-01-17T01:07:30.573Z,95.87
2023-01-17T01:10:15.771Z,94.23
2023-01-17T01:13:01.167Z,93.78
2023-01-17T01:15:46.184Z,93.06
2023-01-17T01:18:31.288Z,92.76
2023-01-17T01:21:21.009Z,92.99
2023-01-17T01:24:07.462Z,92.68
2023-01-17T01:26:52.753Z,92.40
2023-01-17T01:29:38.004Z,92.56
2023-01-17T01:32:23.561Z,92.49
2023-01-17T01:34:51.285Z,93.04
2023-01-17T01:37:18.912Z,93.04
2023-01-17T01:39:47.964Z,93.50
2023-01-17T01:42:16.521Z,93.32
2023-01-17T01:44:47.556Z,93.72
2023-01-17T01:47:18.243Z,93.23
2023-01-17T01:49:45.875Z,93.24
2023-01-17T01:52:13.618Z,92.74
2023-01-17T01:54:44.521Z,93.31
2023-01-17T01:57:15.895Z,93.90
2023-01-17T01:59:47.982Z,92.52
2023-01-17T02:02:15.679Z,93.22
2023-01-17T02:04:44.021Z,93.20
2023-01-17T02:07:14.240Z,92.75
2023-01-17T02:09:42.004Z,93.15
2023-01-17T02:12:10.323Z,93.73
2023-01-17T02:14:39.394Z,93.62
2023-01-17T02:17:20.508Z,93.85
2023-01-17T02:20:08.327Z,93.63
2023-01-17T02:23:08.148Z,93.97
2023-01-17T02:25:52.609Z,93.16
2023-01-17T02:28:34.618Z,93.40
2023-01-17T02:31:05.943Z,93.74
2023-01-17T02:33:37.139Z,93.57
2023-01-17T02:36:10.217Z,93.16
2023-01-17T02:38:45.159Z,93.65
2023-01-17T02:41:17.877Z,93.69
2023-01-17T02:43:45.808Z,93.36
2023-01-17T02:46:14.960Z,93.35
2023-01-17T02:48:42.821Z,93.17
2023-01-17T02:51:36.718Z,92.96
2023-01-17T02:54:21.533Z,92.73
2023-01-17T02:56:57.504Z,92.58
2023-01-17T02:59:35.000Z,92.36
2023-01-17T03:02:12.208Z,92.36
2023-01-17T03:04:44.907Z,92.18
2023-01-17T03:07:16.426Z,92.14
2023-01-17T03:09:45.897Z,91.79
2023-01-17T03:12:14.058Z,91.46
2023-01-17T03:14:41.714Z,91.61
2023-01-17T03:17:10.741Z,92.23
2023-01-17T03:19:38.430Z,92.90
2023-01-17T03:22:06.108Z,92.31
2023-01-17T03:24:33.797Z,91.94
2023-01-17T03:27:01.411Z,92.54
2023-01-17T03:29:29.054Z,91.47
2023-01-17T03:31:56.798Z,91.85
2023-01-17T03:34:25.978Z,91.27
2023-01-17T03:36:53.659Z,91.48
2023-01-17T03:39:21.349Z,91.26
2023-01-17T03:41:49.049Z,91.25
2023-01-17T03:44:16.661Z,90.97
2023-01-17T03:46:44.589Z,90.92
2023-01-17T03:49:12.289Z,90.69
2023-01-17T03:51:41.260Z,90.26
2023-01-17T03:54:09.303Z,90.62
2023-01-17T03:56:37.032Z,90.48
2023-01-17T03:59:04.780Z,90.01
2023-01-17T04:01:32.589Z,90.10
2023-01-17T04:04:00.369Z,90.27
2023-01-17T04:06:28.436Z,89.96
2023-01-17T04:08:57.468Z,90.40
2023-01-17T04:11:25.265Z,90.40
2023-01-17T04:13:52.875Z,90.90
2023-01-17T04:16:21.139Z,90.67
2023-01-17T04:18:48.809Z,91.10
2023-01-17T04:21:16.476Z,91.39
2023-01-17T04:23:44.156Z,91.29
2023-01-17T04:26:13.712Z,92.07
2023-01-17T04:28:41.341Z,91.96
2023-01-17T04:31:10.356Z,92.37
2023-01-17T04:33:38.027Z,92.12
2023-01-17T04:36:07.625Z,92.37
2023-01-17T04:38:35.771Z,92.09
2023-01-17T04:41:03.484Z,92.18
2023-01-17T04:43:32.616Z,92.58
2023-01-17T04:46:00.247Z,93.05
2023-01-17T04:48:28.301Z,92.71
2023-01-17T04:51:00.659Z,92.97
2023-01-17T04:53:28.808Z,92.55
2023-01-17T04:55:56.426Z,93.17
2023-01-17T04:58:24.226Z,93.09
2023-01-17T05:00:53.350Z,93.92
2023-01-17T05:03:22.998Z,93.33
2023-01-17T05:05:50.776Z,93.96
2023-01-17T05:08:18.630Z,94.03
2023-01-17T05:10:46.897Z,93.95
2023-01-17T05:13:15.452Z,94.54
2023-01-17T05:15:43.574Z,94.19
2023-01-17T05:18:15.352Z,93.61
2023-01-17T05:20:43.726Z,94.46
2023-01-17T05:23:12.071Z,94.35
2023-01-17T05:25:44.548Z,94.35
2023-01-17T05:28:12.866Z,94.09
2023-01-17T05:30:40.623Z,94.39
2023-01-17T05:33:10.225Z,94.51
2023-01-17T05:35:39.612Z,94.10
2023-01-17T05:38:07.406Z,93.92
2023-01-17T05:40:35.388Z,93.69
2023-01-17T05:43:04.080Z,93.22
2023-01-17T05:45:33.304Z,92.97
2023-01-17T05:48:01.299Z,92.88
2023-01-17T05:50:30.685Z,93.24
2023-01-17T05:53:01.658Z,93.46
2023-01-17T05:55:29.975Z,93.44
2023-01-17T05:57:57.905Z,92.86
2023-01-17T06:00:25.823Z,93.10
2023-01-17T06:02:54.724Z,93.14
2023-01-17T06:05:23.340Z,93.04
2023-01-17T06:07:51.616Z,93.29
2023-01-17T06:10:22.267Z,93.22
2023-01-17T06:12:50.269Z,93.35
2023-01-17T06:15:19.433Z,93.20
2023-01-17T06:17:47.128Z,93.48
2023-01-17T06:20:14.767Z,93.96
2023-01-17T06:22:42.571Z,94.20
2023-01-17T06:25:10.869Z,93.51
2023-01-17T06:27:40.065Z,93.79
2023-01-17T06:30:09.063Z,93.80
2023-01-17T06:32:36.742Z,93.77
2023-01-17T06:35:04.403Z,93.73
2023-01-17T06:37:32.241Z,93.49
2023-01-17T06:39:59.979Z,94.18
2023-01-17T06:42:27.619Z,94.66
2023-01-17T06:44:56.743Z,95.66
2023-01-17T06:47:24.416Z,95.60
2023-01-17T06:49:52.181Z,95.60
2023-01-17T06:52:19.971Z,96.12
2023-01-17T06:54:47.709Z,96.58
2023-01-17T06:57:15.380Z,96.79
2023-01-17T06:59:43.193Z,97.27
2023-01-17T07:02:13.230Z,97.31
2023-01-17T07:04:41.035Z,97.87
2023-01-17T07:07:08.831Z,98.43
2023-01-17T07:09:36.506Z,98.81
2023-01-17T07:12:04.577Z,99.33
2023-01-17T07:14:32.708Z,99.02
2023-01-17T07:17:00.403Z,99.08
2023-01-17T07:19:29.460Z,98.70
2023-01-17T07:21:57.121Z,99.16
2023-01-17T07:24:24.831Z,99.35
2023-01-17T07:26:53.410Z,100.00
2023-01-17T07:29:21.174Z,100.00
2023-01-17T07:31:49.932Z,100.00
2023-01-17T07:34:17.706Z,100.00
2023-01-17T07:36:48.553Z,99.92
2023-01-17T07:39:16.382Z,99.74
2023-01-17T07:41:44.229Z,99.77
2023-01-17T07:44:12.202Z,99.67
2023-01-17T07:46:40.004Z,99.92
2023-01-17T07:49:07.975Z,100.00
2023-01-17T07:51:36.169Z,99.62
2023-01-17T07:54:05.415Z,98.77
2023-01-17T07:56:34.812Z,98.63
2023-01-17T07:59:02.615Z,98.64
2023-01-17T08:01:30.645Z,98.32
2023-01-17T08:03:58.487Z,98.45
2023-01-17T08:06:27.728Z,97.71
2023-01-17T08:08:57.137Z,97.35
2023-01-17T08:11:26.438Z,97.11
2023-01-17T08:13:57.409Z,96.38
2023-01-17T08:16:25.780Z,96.73
2023-01-17T08:18:54.011Z,95.84
2023-01-17T08:21:21.638Z,95.95
2023-01-17T08:23:49.906Z,94.84
2023-01-17T08:26:22.383Z,94.51
2023-01-17T08:28:56.321Z,95.12
2023-01-17T08:31:24.177Z,95.88
2023-01-17T08:33:51.990Z,95.51
2023-01-17T08:36:19.804Z,96.63
2023-01-17T08:38:47.557Z,95.22
2023-01-17T08:41:15.290Z,94.54
2023-01-17T08:43:43.117Z,94.02
2023-01-17T08:46:12.293Z,94.56
2023-01-17T08:48:40.062Z,94.84
2023-01-17T08:51:07.904Z,92.96
2023-01-17T08:53:35.817Z,90.62
2023-01-17T08:56:05.717Z,90.83
2023-01-17T08:58:34.222Z,89.74
2023-01-17T09:01:03.592Z,89.26
2023-01-17T09:03:34.033Z,88.46
2023-01-17T09:06:03.366Z,88.37
2023-01-17T09:08:31.754Z,87.29
2023-01-17T09:10:59.534Z,87.15
2023-01-17T09:13:27.255Z,87.34
2023-01-17T09:15:57.697Z,87.57
2023-01-17T09:18:25.814Z,88.05
2023-01-17T09:20:59.110Z,88.73
2023-01-17T09:23:28.296Z,87.98
2023-01-17T09:25:56.645Z,88.19
2023-01-17T09:28:24.615Z,87.67
2023-01-17T09:30:53.786Z,88.54
2023-01-17T09:33:23.286Z,87.83
2023-01-17T09:35:51.317Z,87.91
2023-01-17T09:38:21.792Z,86.01
2023-01-17T09:40:50.009Z,86.71
2023-01-17T09:43:23.330Z,85.48
2023-01-17T09:45:51.468Z,85.54
2023-01-17T09:48:24.320Z,83.59
2023-01-17T09:50:55.572Z,82.83
2023-01-17T09:53:24.903Z,83.84
2023-01-17T09:55:55.724Z,83.28
2023-01-17T09:58:27.230Z,81.82
2023-01-17T10:01:00.325Z,81.85
2023-01-17T10:03:47.706Z,79.41
2023-01-17T10:06:23.940Z,77.64
2023-01-17T10:09:10.297Z,78.08
2023-01-17T10:11:48.507Z,76.53
2023-01-17T10:14:39.201Z,72.37
2023-01-17T10:17:13.611Z,74.14
2023-01-17T10:19:52.538Z,71.23
2023-01-17T10:22:34.904Z,72.03
2023-01-17T10:25:15.943Z,68.34
2023-01-17T10:27:48.574Z,69.93
2023-01-17T10:30:24.313Z,71.55
2023-01-17T10:32:52.209Z,72.84
2023-01-17T10:35:24.799Z,69.24
2023-01-17T10:37:56.711Z,69.23
2023-01-17T10:40:41.917Z,68.27
2023-01-17T10:43:16.042Z,67.96
2023-01-17T10:45:51.916Z,67.68
2023-01-17T10:48:23.890Z,67.39
2023-01-17T10:50:58.670Z,68.15
2023-01-17T10:53:39.473Z,67.63
2023-01-17T10:56:09.043Z,67.04
2023-01-17T10:58:36.817Z,67.44
2023-01-17T11:01:08.876Z,68.09
2023-01-17T11:03:36.574Z,68.48
2023-01-17T11:06:19.201Z,69.85
2023-01-17T11:08:52.421Z,68.59
2023-01-17T11:11:22.162Z,67.64
2023-01-17T11:13:50.114Z,67.16
2023-01-17T11:16:21.126Z,65.42
2023-01-17T11:18:50.821Z,67.34
2023-01-17T11:21:23.301Z,67.04
2023-01-17T11:23:53.264Z,66.74
2023-01-17T11:26:27.355Z,65.24
2023-01-17T11:29:14.977Z,67.80
2023-01-17T11:31:42.716Z,67.29
2023-01-17T11:34:16.651Z,66.60
2023-01-17T11:36:44.534Z,66.89
2023-01-17T11:39:27.588Z,65.59
2023-01-17T11:41:56.846Z,66.79
2023-01-17T11:44:26.710Z,66.66
2023-01-17T11:47:17.081Z,68.23
2023-01-17T11:49:46.349Z,64.95
2023-01-17T11:52:19.939Z,67.85
2023-01-17T11:54:48.409Z,66.31
2023-01-17T11:57:22.693Z,67.34
2023-01-17T11:59:50.613Z,66.38
2023-01-17T12:02:34.873Z,64.83
2023-01-17T12:05:17.407Z,67.56
2023-01-17T12:07:49.618Z,65.72
2023-01-17T12:10:22.360Z,65.49
2023-01-17T12:13:25.286Z,66.33
2023-01-17T12:16:01.736Z,67.71
2023-01-17T12:18:35.187Z,67.52
2023-01-17T12:21:14.521Z,66.91
2023-01-17T12:23:55.616Z,68.74
2023-01-17T12:26:31.688Z,66.97
2023-01-17T12:29:35.647Z,69.12
2023-01-17T12:32:14.292Z,67.34
2023-01-17T12:34:47.065Z,69.13
2023-01-17T12:37:20.472Z,67.61
2023-01-17T12:39:52.796Z,66.44
2023-01-17T12:42:24.091Z,65.82
2023-01-17T12:44:57.863Z,66.90
2023-01-17T12:47:26.482Z,66.19
2023-01-17T12:49:59.394Z,65.99
2023-01-17T12:52:42.486Z,66.12
2023-01-17T12:55:15.232Z,64.97
2023-01-17T12:57:46.656Z,64.20
2023-01-17T13:00:19.633Z,64.55
2023-01-17T13:02:51.510Z,64.42
2023-01-17T13:05:23.645Z,63.91
2023-01-17T13:07:56.360Z,65.23
2023-01-17T13:10:31.853Z,63.95
2023-01-17T13:13:04.819Z,64.13
2023-01-17T13:15:38.575Z,63.66
2023-01-17T13:18:10.681Z,66.32
2023-01-17T13:20:43.699Z,64.62
2023-01-17T13:23:14.289Z,63.99
2023-01-17T13:25:46.288Z,64.62
2023-01-17T13:28:19.657Z,66.32
2023-01-17T13:31:19.773Z,66.11
2023-01-17T13:34:10.933Z,63.81
2023-01-17T13:36:57.789Z,63.14
2023-01-17T13:39:35.354Z,64.03
2023-01-17T13:42:11.784Z,62.37
2023-01-17T13:44:39.683Z,62.69
2023-01-17T13:47:40.400Z,62.57
2023-01-17T13:50:46.926Z,64.21
2023-01-17T13:53:57.525Z,62.54
2023-01-17T13:56:28.813Z,62.81
2023-01-17T13:58:58.702Z,62.24
2023-01-17T14:01:54.422Z,63.19
2023-01-17T14:05:05.553Z,63.35
2023-01-17T14:07:33.817Z,63.92
2023-01-17T14:10:01.836Z,63.43
2023-01-17T14:12:32.902Z,65.11
2023-01-17T14:15:05.835Z,65.83
2023-01-17T14:17:58.903Z,66.40
2023-01-17T14:21:02.917Z,66.76
2023-01-17T14:23:34.551Z,66.86
2023-01-17T14:26:17.221Z,68.18
2023-01-17T14:28:44.945Z,67.82
2023-01-17T14:31:14.032Z,69.06
2023-01-17T14:33:42.795Z,69.04
2023-01-17T14:36:22.100Z,69.43
2023-01-17T14:38:49.786Z,70.24
2023-01-17T14:41:21.073Z,69.13
2023-01-17T14:43:49.651Z,70.00
2023-01-17T14:46:22.586Z,70.70
2023-01-17T14:48:50.724Z,70.87
2023-01-17T14:51:22.958Z,71.20
2023-01-17T14:53:55.443Z,71.58
2023-01-17T14:56:26.855Z,71.52
2023-01-17T14:59:14.417Z,70.98
2023-01-17T15:01:42.722Z,71.68
2023-01-17T15:04:22.589Z,72.12
2023-01-17T15:06:51.886Z,72.27
2023-01-17T15:09:21.544Z,73.14
2023-01-17T15:11:52.202Z,73.53
2023-01-17T15:14:22.566Z,73.56
2023-01-17T15:16:52.004Z,74.02
2023-01-17T15:19:20.918Z,74.52
2023-01-17T15:21:52.662Z,74.34
2023-01-17T15:24:21.982Z,74.73
2023-01-17T15:26:50.187Z,74.14
2023-01-17T15:29:22.520Z,74.92
2023-01-17T15:31:51.824Z,75.24
2023-01-17T15:34:25.223Z,75.50
2023-01-17T15:36:56.889Z,75.32
2023-01-17T15:39:25.618Z,75.12
2023-01-17T15:41:54.535Z,75.89
2023-01-17T15:44:31.138Z,76.01
2023-01-17T15:47:04.621Z,76.36
2023-01-17T15:49:32.711Z,76.55
2023-01-17T15:52:16.107Z,76.60
2023-01-17T15:54:47.464Z,76.70
2023-01-17T15:57:25.964Z,77.16
2023-01-17T15:59:59.508Z,77.23
2023-01-17T16:02:36.525Z,77.59
2023-01-17T16:05:21.142Z,78.69
2023-01-17T16:07:51.048Z,78.85
2023-01-17T16:10:20.289Z,79.30
2023-01-17T16:12:48.709Z,78.92
2023-01-17T16:15:18.332Z,79.63
2023-01-17T16:17:48.834Z,79.71
2023-01-17T16:20:22.410Z,80.39
2023-01-17T16:22:52.198Z,80.25
2023-01-17T16:25:21.872Z,80.13
2023-01-17T16:27:50.076Z,80.55
2023-01-17T16:30:19.571Z,80.41
2023-01-17T16:32:48.838Z,80.14
2023-01-17T16:35:20.719Z,80.28
2023-01-17T16:37:52.320Z,80.40
2023-01-17T16:40:21.151Z,80.02
2023-01-17T16:42:48.821Z,80.34
2023-01-17T16:45:17.431Z,79.99
2023-01-17T16:47:46.439Z,80.03
2023-01-17T16:50:15.496Z,80.14
2023-01-17T16:52:43.377Z,80.83
2023-01-17T16:55:15.265Z,81.62
2023-01-17T16:57:43.109Z,80.78
2023-01-17T17:00:12.534Z,80.80
2023-01-17T17:02:40.760Z,80.37
2023-01-17T17:05:09.625Z,81.05
2023-01-17T17:07:42.663Z,80.95
2023-01-17T17:10:14.032Z,81.31
2023-01-17T17:12:41.726Z,80.99
2023-01-17T17:15:10.219Z,80.52
2023-01-17T17:17:38.289Z,81.23
2023-01-17T17:20:07.798Z,81.18
2023-01-17T17:22:35.434Z,82.37
2023-01-17T17:25:03.220Z,82.76
2023-01-17T17:27:32.355Z,82.69
2023-01-17T17:30:00.167Z,82.58
2023-01-17T17:32:29.262Z,81.43
2023-01-17T17:34:57.064Z,82.08
2023-01-17T17:37:28.830Z,81.61
2023-01-17T17:39:57.339Z,81.52
2023-01-17T17:42:26.308Z,82.38
2023-01-17T17:44:55.357Z,81.94
2023-01-17T17:47:30.648Z,81.06
2023-01-17T17:49:58.566Z,82.14
2023-01-17T17:52:34.411Z,82.99
2023-01-17T17:58:23.999Z,83.26
2023-01-17T18:00:53.308Z,83.55
2023-01-17T18:03:44.903Z,83.65
2023-01-17T18:06:29.646Z,83.67
2023-01-17T18:09:10.312Z,83.83
2023-01-17T18:11:39.865Z,83.54
2023-01-17T18:14:09.541Z,84.11
2023-01-17T18:16:41.602Z,84.63
2023-01-17T18:19:09.661Z,85.12
2023-01-17T18:21:39.042Z,86.22
2023-01-17T18:24:09.084Z,86.92
2023-01-17T18:26:38.581Z,87.65
2023-01-17T18:29:09.691Z,88.71
2023-01-17T18:31:39.203Z,89.16
2023-01-17T18:34:09.149Z,88.97
2023-01-17T18:36:37.348Z,89.56
2023-01-17T18:39:06.401Z,89.31
2023-01-17T18:41:34.702Z,89.61
2023-01-17T18:44:04.888Z,90.07
2023-01-17T18:46:32.734Z,91.25
2023-01-17T18:49:01.870Z,92.92
2023-01-17T18:51:31.885Z,93.33
2023-01-17T18:54:05.340Z,93.38
2023-01-17T18:56:35.176Z,92.83
2023-01-17T18:59:05.719Z,92.19
2023-01-17T19:01:35.859Z,91.17
2023-01-17T19:04:06.693Z,91.68
2023-01-17T19:06:36.095Z,91.45
2023-01-17T19:16:12.443Z,92.18
2023-01-17T19:18:40.339Z,91.81
2023-01-17T19:21:10.915Z,92.09
2023-01-17T19:23:39.085Z,92.15
2023-01-17T19:26:08.216Z,92.93
2023-01-17T19:28:38.653Z,93.27
2023-01-17T19:31:07.814Z,93.88
2023-01-17T19:33:36.355Z,94.25
2023-01-17T19:36:09.379Z,93.82
2023-01-17T19:38:39.153Z,93.92
2023-01-17T19:41:16.203Z,93.72
2023-01-17T19:44:48.417Z,93.66
2023-01-17T19:47:26.926Z,93.41
2023-01-17T19:50:42.133Z,93.75
2023-01-17T19:53:11.490Z,94.07
2023-01-17T19:55:41.612Z,93.92
2023-01-17T19:58:09.392Z,93.62
2023-01-17T20:00:46.210Z,94.01
2023-01-17T20:03:14.788Z,94.19
2023-01-17T20:05:42.648Z,94.28
2023-01-17T20:08:11.172Z,94.76
2023-01-17T20:10:38.820Z,95.87
2023-01-17T20:13:07.753Z,96.02
2023-01-17T20:15:35.388Z,96.19
2023-01-17T20:18:03.653Z,96.45
2023-01-17T20:20:32.870Z,95.88
2023-01-17T20:23:01.555Z,95.75
2023-01-17T20:25:29.191Z,95.70
2023-01-17T20:27:57.141Z,96.09
2023-01-17T20:30:33.006Z,96.29
2023-01-17T20:33:01.683Z,96.34
2023-01-17T20:35:31.212Z,96.81
2023-01-17T20:38:03.005Z,97.24
2023-01-17T20:40:30.741Z,98.35
2023-01-17T20:43:03.667Z,98.82
2023-01-17T20:45:37.190Z,99.26
2023-01-17T20:48:07.605Z,98.93
2023-01-17T20:50:37.863Z,99.28
2023-01-17T20:55:48.479Z,99.39
2023-01-17T20:58:16.271Z,99.03
2023-01-17T21:00:48.267Z,98.46
2023-01-17T21:03:16.069Z,98.41
2023-01-17T21:05:43.768Z,98.28
2023-01-17T21:08:17.161Z,98.27
2023-01-17T21:10:48.281Z,97.88
2023-01-17T21:13:16.690Z,97.16
2023-01-17T21:15:47.333Z,96.54
2023-01-17T21:18:16.623Z,96.75
2023-01-17T21:20:44.831Z,96.48
2023-01-17T21:23:18.095Z,96.36
2023-01-17T21:25:57.095Z,96.04
2023-01-17T21:28:26.008Z,96.38
2023-01-17T21:30:55.707Z,96.55
2023-01-17T21:33:24.963Z,96.45
2023-01-17T21:35:53.279Z,96.72
2023-01-17T21:38:21.235Z,97.17
2023-01-17T21:40:49.165Z,97.30
2023-01-17T21:43:18.726Z,98.16
2023-01-17T21:45:47.814Z,98.65
2023-01-17T21:48:21.812Z,98.19
2023-01-17T21:50:53.988Z,98.25
2023-01-17T21:53:24.232Z,98.69
2023-01-17T21:56:09.931Z,98.60
2023-01-17T21:58:46.486Z,98.38
2023-01-17T22:01:18.081Z,98.29
2023-01-17T22:03:51.409Z,98.69
2023-01-17T22:06:21.852Z,98.93
2023-01-17T22:08:49.897Z,98.41
2023-01-17T22:11:19.687Z,98.25
2023-01-17T22:13:47.994Z,98.38
2023-01-17T22:16:17.603Z,98.81
2023-01-17T22:18:48.338Z,99.15
2023-01-17T22:21:17.328Z,99.36
2023-01-17T22:23:47.304Z,99.62
2023-01-17T22:26:15.272Z,99.64
2023-01-17T22:28:43.670Z,100.00
2023-01-17T22:31:13.317Z,100.00
2023-01-17T22:33:42.843Z,100.00
2023-01-17T22:36:13.891Z,100.00
2023-01-17T22:38:42.513Z,100.00
2023-01-17T22:41:13.262Z,100.00
2023-01-17T22:43:43.356Z,100.00
2023-01-17T22:46:14.165Z,100.00
2023-01-17T22:48:42.769Z,100.00
2023-01-17T22:51:13.638Z,100.00
2023-01-17T22:53:42.095Z,99.73
2023-01-17T22:56:13.513Z,99.65
2023-01-17T22:58:44.968Z,99.70
2023-01-17T23:01:14.359Z,99.40
2023-01-17T23:03:42.919Z,99.22
2023-01-17T23:06:14.741Z,100.00
2023-01-17T23:08:44.758Z,100.00
2023-01-17T23:11:42.602Z,99.89
2023-01-17T23:14:16.738Z,99.03
2023-01-17T23:17:03.568Z,98.52
2023-01-17T23:19:34.839Z,97.89
2023-01-17T23:22:19.299Z,97.85
2023-01-17T23:24:50.333Z,97.47
2023-01-17T23:27:37.714Z,97.57
2023-01-17T23:30:07.688Z,97.56
2023-01-17T23:32:35.807Z,97.19
2023-01-17T23:35:03.819Z,97.09
2023-01-17T23:37:50.385Z,97.14
2023-01-17T23:40:19.481Z,97.15
2023-01-17T23:43:04.790Z,96.63
2023-01-17T23:45:35.784Z,97.15
2023-01-17T23:48:05.145Z,97.01
2023-01-17T23:50:33.330Z,96.50
2023-01-17T23:53:07.000Z,96.75
2023-01-17T23:55:37.308Z,97.19
2023-01-17T23:58:05.433Z,96.73
